Time;durP1;ratioP1;P1;durP2;ratioP2;P2;SDS_P1;SDS_P2;PMS_P1;PMS_P2;Temp;Humidity;BMP_temperature;BMP_pressure;BME280_temperature;BME280_humidity;BME280_pressure;Samples;Min_cycle;Max_cycle;Signal;HPM_P1;HPM_P2
2023/12/13 00:00:30;;;;;;;1.52;0.50;;;;;;;;;;5263941;28;20346;-85
2023/12/13 00:03:01;;;;;;;1.85;0.30;;;;;;;;;;5263479;28;20025;-86
2023/12/13 00:05:32;;;;;;;5.60;0.70;;;;;;;;;;5263060;28;20525;-86
2023/12/13 00:08:04;;;;;;;1.58;0.30;;;;;;;;;;5263666;28;20025;-86
2023/12/13 00:10:35;;;;;;;2.90;0.30;;;;;;;;;;5263473;28;20024;-85
2023/12/13 00:13:08;;;;;;;2.88;0.30;;;;;;;;;;5263574;28;20104;-84
2023/12/13 00:15:39;;;;;;;2.72;0.20;;;;;;;;;;5264919;28;20461;-84
2023/12/13 00:18:10;;;;;;;2.50;0.30;;;;;;;;;;5263002;28;20082;-85
2023/12/13 00:20:41;;;;;;;4.80;0.30;;;;;;;;;;5263360;28;20021;-85
2023/12/13 00:23:13;;;;;;;1.65;0.30;;;;;;;;;;5263592;28;20143;-84
2023/12/13 00:25:44;;;;;;;3.47;0.30;;;;;;;;;;5262316;28;20036;-85
2023/12/13 00:28:15;;;;;;;2.28;0.40;;;;;;;;;;5263256;28;20025;-83
2023/12/13 00:30:46;;;;;;;1.55;0.30;;;;;;;;;;5263205;28;20067;-85
2023/12/13 00:33:17;;;;;;;1.75;0.30;;;;;;;;;;5262187;28;20033;-84
2023/12/13 00:35:48;;;;;;;3.35;0.30;;;;;;;;;;5263019;28;20016;-84
2023/12/13 00:38:19;;;;;;;1.73;0.30;;;;;;;;;;5263373;28;20055;-84
2023/12/13 00:40:51;;;;;;;1.77;0.20;;;;;;;;;;5262548;28;20109;-84
2023/12/13 00:43:22;;;;;;;1.55;0.30;;;;;;;;;;5262773;28;20021;-84
2023/12/13 00:45:53;;;;;;;3.25;0.30;;;;;;;;;;5262714;28;20053;-84
2023/12/13 00:48:24;;;;;;;1.92;0.30;;;;;;;;;;5263194;28;20436;-85
2023/12/13 00:50:56;;;;;;;1.60;0.22;;;;;;;;;;5268967;28;20637;-85
2023/12/13 00:53:27;;;;;;;2.55;0.30;;;;;;;;;;5270428;28;20052;-85
2023/12/13 00:55:59;;;;;;;1.40;0.30;;;;;;;;;;5276090;28;20005;-85
2023/12/13 00:58:30;;;;;;;2.58;0.30;;;;;;;;;;5277248;28;20085;-84
2023/12/13 01:01:02;;;;;;;2.08;0.20;;;;;;;;;;5275998;28;20028;-84
2023/12/13 01:03:33;;;;;;;2.25;0.30;;;;;;;;;;5264115;28;20009;-84
2023/12/13 01:06:09;;;;;;;2.35;0.43;;;;;;;;;;5263142;28;20017;-84
2023/12/13 01:08:40;;;;;;;1.10;0.20;;;;;;;;;;5261950;28;20078;-84
2023/12/13 01:11:11;;;;;;;1.40;0.30;;;;;;;;;;5262401;28;20525;-85
2023/12/13 01:13:43;;;;;;;2.80;0.30;;;;;;;;;;5262580;28;20388;-83
2023/12/13 01:16:14;;;;;;;1.30;0.30;;;;;;;;;;5261955;28;20032;-84
2023/12/13 01:18:45;;;;;;;2.30;0.30;;;;;;;;;;5262624;28;20082;-84
2023/12/13 01:21:16;;;;;;;5.57;0.50;;;;;;;;;;5261636;28;20071;-83
2023/12/13 01:23:48;;;;;;;2.08;0.40;;;;;;;;;;5262427;28;20021;-83
2023/12/13 01:26:19;;;;;;;1.73;0.30;;;;;;;;;;5262223;28;20028;-84
2023/12/13 01:28:50;;;;;;;4.35;0.43;;;;;;;;;;5261573;28;20048;-83
2023/12/13 01:31:21;;;;;;;2.78;0.50;;;;;;;;;;5261669;28;20495;-84
2023/12/13 01:33:52;;;;;;;2.42;0.30;;;;;;;;;;5262470;28;20044;-84
2023/12/13 01:36:23;;;;;;;1.80;0.30;;;;;;;;;;5261314;28;20032;-84
2023/12/13 01:38:55;;;;;;;3.65;0.30;;;;;;;;;;5262494;28;20043;-84
2023/12/13 01:41:26;;;;;;;4.05;0.43;;;;;;;;;;5261456;28;20107;-83
2023/12/13 01:43:57;;;;;;;3.04;0.32;;;;;;;;;;5260995;28;20372;-84
2023/12/13 01:46:30;;;;;;;2.05;0.30;;;;;;;;;;5261735;28;20403;-84
2023/12/13 01:49:02;;;;;;;3.63;0.40;;;;;;;;;;5261761;28;20025;-84
2023/12/13 01:51:34;;;;;;;1.92;0.40;;;;;;;;;;5261116;28;20009;-85
2023/12/13 01:54:08;;;;;;;1.83;0.38;;;;;;;;;;5261900;28;20079;-84
2023/12/13 01:56:40;;;;;;;3.17;0.40;;;;;;;;;;5260858;28;20435;-84
2023/12/13 01:59:15;;;;;;;3.03;0.40;;;;;;;;;;5261349;28;20036;-85
2023/12/13 02:01:46;;;;;;;3.67;0.40;;;;;;;;;;5261584;28;20029;-84
2023/12/13 02:04:20;;;;;;;2.20;0.30;;;;;;;;;;5260335;28;20031;-84
2023/12/13 02:06:52;;;;;;;4.03;0.40;;;;;;;;;;5260551;28;20017;-84
2023/12/13 02:09:23;;;;;;;4.60;0.73;;;;;;;;;;5260753;28;20017;-84
2023/12/13 02:11:54;;;;;;;4.85;0.40;;;;;;;;;;5260850;28;20056;-84
2023/12/13 02:14:25;;;;;;;3.28;0.50;;;;;;;;;;5260782;28;20036;-84
2023/12/13 02:16:56;;;;;;;2.45;0.40;;;;;;;;;;5261137;28;20044;-84
2023/12/13 02:19:27;;;;;;;4.85;0.60;;;;;;;;;;5260066;28;20031;-84
2023/12/13 02:21:59;;;;;;;4.13;0.32;;;;;;;;;;5261038;28;20465;-84
2023/12/13 02:24:30;;;;;;;5.22;0.47;;;;;;;;;;5260020;28;20102;-85
2023/12/13 02:27:02;;;;;;;4.65;0.55;;;;;;;;;;5261110;28;20468;-84
2023/12/13 02:29:33;;;;;;;4.00;0.40;;;;;;;;;;5261086;28;20025;-85
2023/12/13 02:32:05;;;;;;;2.67;0.40;;;;;;;;;;5260069;28;20025;-85
2023/12/13 02:34:36;;;;;;;4.68;0.60;;;;;;;;;;5261161;28;20029;-84
2023/12/13 02:37:08;;;;;;;3.83;0.40;;;;;;;;;;5260861;28;20029;-84
2023/12/13 02:39:39;;;;;;;4.03;0.40;;;;;;;;;;5260414;28;20052;-84
2023/12/13 02:42:10;;;;;;;4.00;0.40;;;;;;;;;;5260968;28;20088;-84
2023/12/13 02:44:43;;;;;;;3.10;0.40;;;;;;;;;;5260756;28;20081;-84
2023/12/13 02:47:14;;;;;;;2.50;0.50;;;;;;;;;;5260152;28;20028;-85
2023/12/13 02:49:45;;;;;;;3.08;0.50;;;;;;;;;;5260728;28;20033;-84
2023/12/13 02:52:16;;;;;;;2.42;0.40;;;;;;;;;;5260633;28;20535;-85
2023/12/13 02:54:47;;;;;;;3.95;0.50;;;;;;;;;;5260101;28;20398;-84
2023/12/13 02:57:18;;;;;;;3.88;0.80;;;;;;;;;;5260708;28;20056;-85
2023/12/13 02:59:50;;;;;;;3.63;0.45;;;;;;;;;;5260296;28;20407;-85
2023/12/13 03:02:21;;;;;;;2.63;0.40;;;;;;;;;;5260581;28;20357;-84
2023/12/13 03:04:52;;;;;;;2.28;0.50;;;;;;;;;;5261325;28;20021;-84
2023/12/13 03:07:23;;;;;;;4.82;0.60;;;;;;;;;;5259673;28;20024;-85
2023/12/13 03:09:54;;;;;;;4.47;0.50;;;;;;;;;;5261217;28;20097;-84
2023/12/13 03:12:25;;;;;;;3.90;0.50;;;;;;;;;;5260276;28;20047;-84
2023/12/13 03:14:57;;;;;;;6.84;0.50;;;;;;;;;;5259998;28;20025;-84
2023/12/13 03:17:28;;;;;;;3.67;0.63;;;;;;;;;;5261403;28;20101;-84
2023/12/13 03:19:59;;;;;;;4.88;0.50;;;;;;;;;;5264083;28;20033;-84
2023/12/13 03:22:30;;;;;;;6.02;1.10;;;;;;;;;;5264053;28;20074;-86
2023/12/13 03:25:01;;;;;;;3.08;0.50;;;;;;;;;;5264195;28;20045;-84
2023/12/13 03:27:33;;;;;;;5.03;0.80;;;;;;;;;;5263586;28;20048;-84
2023/12/13 03:30:04;;;;;;;4.45;0.50;;;;;;;;;;5264094;28;20103;-84
2023/12/13 03:32:36;;;;;;;5.82;0.50;;;;;;;;;;5265072;28;20036;-84
2023/12/13 03:35:07;;;;;;;5.75;0.60;;;;;;;;;;5263473;28;20017;-83
2023/12/13 03:37:38;;;;;;;5.63;0.60;;;;;;;;;;5264232;28;20017;-81
2023/12/13 03:40:10;;;;;;;5.15;0.50;;;;;;;;;;5264023;28;20013;-82
2023/12/13 03:42:41;;;;;;;4.95;0.98;;;;;;;;;;5263245;28;20147;-82
2023/12/13 03:45:12;;;;;;;5.78;0.50;;;;;;;;;;5263880;28;20090;-82
2023/12/13 03:47:43;;;;;;;5.63;0.52;;;;;;;;;;5263935;28;20021;-82
2023/12/13 03:50:14;;;;;;;3.33;0.40;;;;;;;;;;5263223;28;20045;-83
2023/12/13 03:52:46;;;;;;;7.90;0.55;;;;;;;;;;5263589;28;20033;-82
2023/12/13 03:55:17;;;;;;;6.22;0.50;;;;;;;;;;5263593;28;20380;-82
2023/12/13 03:57:48;;;;;;;3.90;0.40;;;;;;;;;;5262926;28;20487;-82
2023/12/13 04:00:19;;;;;;;5.28;0.70;;;;;;;;;;5263725;28;20087;-82
2023/12/13 04:02:50;;;;;;;7.30;0.70;;;;;;;;;;5262954;28;20024;-83
2023/12/13 04:05:21;;;;;;;7.47;0.60;;;;;;;;;;5263220;28;20024;-83
2023/12/13 04:07:53;;;;;;;5.97;0.82;;;;;;;;;;5263741;28;20107;-83
2023/12/13 04:10:26;;;;;;;4.32;0.68;;;;;;;;;;5262344;28;20020;-84
2023/12/13 04:12:57;;;;;;;6.13;0.65;;;;;;;;;;5263408;28;20174;-83
2023/12/13 04:15:28;;;;;;;6.82;0.77;;;;;;;;;;5263226;28;20099;-83
2023/12/13 04:17:59;;;;;;;5.40;0.63;;;;;;;;;;5262508;28;20483;-83
2023/12/13 04:20:30;;;;;;;7.55;0.80;;;;;;;;;;5263135;28;20418;-83
2023/12/13 04:23:01;;;;;;;6.05;0.50;;;;;;;;;;5263367;28;20040;-83
2023/12/13 04:25:33;;;;;;;5.78;0.60;;;;;;;;;;5262322;28;20056;-83
2023/12/13 04:28:04;;;;;;;6.45;0.70;;;;;;;;;;5263097;28;20025;-84
2023/12/13 04:30:35;;;;;;;6.05;0.50;;;;;;;;;;5262046;28;20025;-84
2023/12/13 04:33:06;;;;;;;7.00;0.80;;;;;;;;;;5262089;28;20021;-83
2023/12/13 04:35:37;;;;;;;6.18;0.70;;;;;;;;;;5263122;28;20044;-84
2023/12/13 04:38:09;;;;;;;8.20;1.33;;;;;;;;;;5262292;28;20035;-84
2023/12/13 04:40:41;;;;;;;11.60;0.98;;;;;;;;;;5262968;28;20052;-84
2023/12/13 04:43:12;;;;;;;7.85;0.50;;;;;;;;;;5262589;28;20029;-84
2023/12/13 04:45:43;;;;;;;8.38;0.80;;;;;;;;;;5262150;28;20017;-84
2023/12/13 04:48:14;;;;;;;8.07;0.55;;;;;;;;;;5262821;28;20036;-84
2023/12/13 04:50:45;;;;;;;4.50;0.40;;;;;;;;;;5262672;28;20028;-85
2023/12/13 04:53:16;;;;;;;8.23;1.60;;;;;;;;;;5261846;28;20033;-85
2023/12/13 04:55:48;;;;;;;7.75;0.80;;;;;;;;;;5262394;28;20087;-84
2023/12/13 04:58:19;;;;;;;6.95;0.90;;;;;;;;;;5262849;28;20424;-84
2023/12/13 05:00:50;;;;;;;9.82;0.65;;;;;;;;;;5262007;28;20028;-84
2023/12/13 05:03:21;;;;;;;7.20;1.40;;;;;;;;;;5262203;28;20021;-84
2023/12/13 05:05:52;;;;;;;9.30;0.80;;;;;;;;;;5262683;28;20025;-84
2023/12/13 05:08:24;;;;;;;8.35;0.60;;;;;;;;;;5261385;28;20017;-85
2023/12/13 05:10:55;;;;;;;7.18;0.60;;;;;;;;;;5262848;28;20182;-84
2023/12/13 05:13:26;;;;;;;6.00;0.75;;;;;;;;;;5261271;28;20069;-84
2023/12/13 05:15:57;;;;;;;7.50;0.80;;;;;;;;;;5262369;28;20024;-84
2023/12/13 05:18:29;;;;;;;7.22;0.80;;;;;;;;;;5262314;28;20024;-86
2023/12/13 05:21:01;;;;;;;8.88;1.27;;;;;;;;;;5261572;28;20021;-84
2023/12/13 05:23:33;;;;;;;8.80;0.63;;;;;;;;;;5262732;28;20099;-83
2023/12/13 05:26:04;;;;;;;6.68;0.70;;;;;;;;;;5262018;28;20116;-85
2023/12/13 05:28:36;;;;;;;12.18;1.02;;;;;;;;;;5261413;28;20094;-84
2023/12/13 05:31:17;;;;;;;10.63;0.70;;;;;;;;;;5261853;28;20025;-84
2023/12/13 05:33:48;;;;;;;4.65;0.77;;;;;;;;;;5261979;28;20104;-84
2023/12/13 05:36:20;;;;;;;7.38;0.70;;;;;;;;;;5261150;28;20104;-83
2023/12/13 05:38:51;;;;;;;8.60;0.90;;;;;;;;;;5261838;28;20060;-83
2023/12/13 05:41:22;;;;;;;9.38;0.70;;;;;;;;;;5260605;28;20016;-84
2023/12/13 05:43:53;;;;;;;8.98;0.60;;;;;;;;;;5261984;28;20017;-84
2023/12/13 05:46:24;;;;;;;9.75;0.90;;;;;;;;;;5261503;28;20070;-84
2023/12/13 05:48:56;;;;;;;7.40;1.02;;;;;;;;;;5261318;28;20025;-83
2023/12/13 05:51:27;;;;;;;6.10;0.60;;;;;;;;;;5260869;28;20017;-83
2023/12/13 05:53:58;;;;;;;7.03;0.70;;;;;;;;;;5261010;28;20025;-84
2023/12/13 05:56:30;;;;;;;8.60;0.68;;;;;;;;;;5260872;28;20100;-84
2023/12/13 05:59:01;;;;;;;5.18;0.60;;;;;;;;;;5261106;28;20444;-84
2023/12/13 06:01:32;;;;;;;8.93;0.63;;;;;;;;;;5260962;28;20025;-84
2023/12/13 06:04:04;;;;;;;5.13;0.70;;;;;;;;;;5260298;28;20414;-83
2023/12/13 06:06:35;;;;;;;8.25;0.98;;;;;;;;;;5261089;28;20017;-84
2023/12/13 06:09:09;;;;;;;7.38;1.04;;;;;;;;;;5261127;28;20036;-83
2023/12/13 06:11:40;;;;;;;8.88;0.98;;;;;;;;;;5260436;28;20017;-82
2023/12/13 06:14:12;;;;;;;6.70;0.60;;;;;;;;;;5261152;28;20032;-83
2023/12/13 06:16:43;;;;;;;8.52;0.70;;;;;;;;;;5260348;28;20020;-83
2023/12/13 06:19:14;;;;;;;6.10;0.75;;;;;;;;;;5260904;28;20065;-83
2023/12/13 06:21:45;;;;;;;11.00;1.35;;;;;;;;;;5260825;28;20021;-83
2023/12/13 06:24:16;;;;;;;7.30;1.13;;;;;;;;;;5260162;28;20388;-83
2023/12/13 06:26:48;;;;;;;7.78;1.38;;;;;;;;;;5260994;28;20016;-82
2023/12/13 06:29:19;;;;;;;7.90;1.25;;;;;;;;;;5260899;28;20031;-83
2023/12/13 06:31:50;;;;;;;4.80;0.60;;;;;;;;;;5260081;28;20036;-83
2023/12/13 06:34:22;;;;;;;6.20;0.63;;;;;;;;;;5260601;28;20029;-84
2023/12/13 06:36:53;;;;;;;8.68;0.80;;;;;;;;;;5261123;28;20044;-84
2023/12/13 06:39:25;;;;;;;15.10;0.98;;;;;;;;;;5259592;28;20113;-84
2023/12/13 06:41:56;;;;;;;8.73;1.13;;;;;;;;;;5260902;28;20017;-83
2023/12/13 06:44:27;;;;;;;8.55;1.30;;;;;;;;;;5260239;28;20025;-83
2023/12/13 06:46:59;;;;;;;7.70;1.02;;;;;;;;;;5260604;28;20075;-83
2023/12/13 06:49:31;;;;;;;9.22;1.24;;;;;;;;;;5260586;28;20021;-83
2023/12/13 06:52:02;;;;;;;7.20;1.13;;;;;;;;;;5260237;28;20029;-83
2023/12/13 06:54:33;;;;;;;6.57;1.00;;;;;;;;;;5264731;28;20035;-81
2023/12/13 06:57:06;;;;;;;5.72;0.60;;;;;;;;;;5264814;28;20108;-81
2023/12/13 06:59:37;;;;;;;6.30;0.70;;;;;;;;;;5264050;28;20021;-81
2023/12/13 07:02:08;;;;;;;6.30;0.90;;;;;;;;;;5264731;28;20021;-81
2023/12/13 07:04:42;;;;;;;7.32;0.63;;;;;;;;;;5264591;28;20020;-82
2023/12/13 07:07:15;;;;;;;7.35;1.05;;;;;;;;;;5263851;28;20071;-83
2023/12/13 07:09:46;;;;;;;4.75;0.90;;;;;;;;;;5264894;28;20019;-81
2023/12/13 07:12:17;;;;;;;6.10;0.70;;;;;;;;;;5264598;28;20020;-79
2023/12/13 07:14:48;;;;;;;5.55;0.70;;;;;;;;;;5263708;28;20024;-81
2023/12/13 07:17:19;;;;;;;6.53;0.60;;;;;;;;;;5264412;28;20025;-82
2023/12/13 07:19:51;;;;;;;6.43;0.70;;;;;;;;;;5263456;28;20108;-80
2023/12/13 07:22:22;;;;;;;5.47;1.00;;;;;;;;;;5263993;28;20013;-80
2023/12/13 07:24:53;;;;;;;5.43;1.02;;;;;;;;;;5264331;28;20043;-79
2023/12/13 07:27:25;;;;;;;7.53;1.10;;;;;;;;;;5263115;28;20082;-79
2023/12/13 07:29:56;;;;;;;6.13;1.15;;;;;;;;;;5264254;28;20104;-80
2023/12/13 07:32:27;;;;;;;4.70;0.80;;;;;;;;;;5263818;28;20060;-80
2023/12/13 07:34:58;;;;;;;5.70;0.85;;;;;;;;;;5263015;28;20031;-79
2023/12/13 07:37:30;;;;;;;5.10;1.15;;;;;;;;;;5263696;28;20021;-79
2023/12/13 07:40:03;;;;;;;6.00;1.25;;;;;;;;;;5263752;28;20544;-79
2023/12/13 07:42:34;;;;;;;4.63;0.95;;;;;;;;;;5263835;28;20025;-78
2023/12/13 07:45:05;;;;;;;5.90;0.95;;;;;;;;;;5263939;28;20032;-79
2023/12/13 07:47:38;;;;;;;6.50;1.20;;;;;;;;;;5263030;28;20104;-79
2023/12/13 07:50:09;;;;;;;5.38;0.85;;;;;;;;;;5262389;28;20598;-79
2023/12/13 07:52:40;;;;;;;5.90;1.20;;;;;;;;;;5263230;28;20037;-79
2023/12/13 07:55:13;;;;;;;5.38;0.90;;;;;;;;;;5262755;28;20013;-79
2023/12/13 07:57:45;;;;;;;5.50;1.10;;;;;;;;;;5263441;28;20083;-79
2023/12/13 08:00:16;;;;;;;4.30;0.70;;;;;;;;;;5263634;28;20039;-79
2023/12/13 08:02:47;;;;;;;2.97;0.73;;;;;;;;;;5262819;28;20105;-79
2023/12/13 08:05:20;;;;;;;3.47;0.80;;;;;;;;;;5261821;28;20028;-78
2023/12/13 08:07:51;;;;;;;5.70;0.85;;;;;;;;;;5263564;28;20017;-78
2023/12/13 08:10:22;;;;;;;3.30;0.90;;;;;;;;;;5262506;28;20024;-80
2023/12/13 08:12:53;;;;;;;4.68;0.80;;;;;;;;;;5263536;28;20121;-78
2023/12/13 08:15:25;;;;;;;5.63;0.90;;;;;;;;;;5262889;28;20024;-80
2023/12/13 08:17:56;;;;;;;7.97;1.05;;;;;;;;;;5262609;28;20025;-80
2023/12/13 08:20:29;;;;;;;5.28;0.90;;;;;;;;;;5263312;28;20032;-79
2023/12/13 08:23:03;;;;;;;6.30;1.13;;;;;;;;;;5262308;28;20021;-80
2023/12/13 08:25:34;;;;;;;8.35;1.20;;;;;;;;;;5262779;28;20056;-80
2023/12/13 08:28:06;;;;;;;3.47;0.80;;;;;;;;;;5262976;28;20025;-82
2023/12/13 08:30:37;;;;;;;6.03;0.93;;;;;;;;;;5261964;28;20485;-83
2023/12/13 08:33:08;;;;;;;5.75;0.80;;;;;;;;;;5262956;28;20466;-81
2023/12/13 08:35:39;;;;;;;5.28;1.00;;;;;;;;;;5262987;28;20067;-83
2023/12/13 08:38:10;;;;;;;4.97;0.90;;;;;;;;;;5262145;28;20032;-83
2023/12/13 08:40:42;;;;;;;4.05;0.90;;;;;;;;;;5262855;28;20032;-81
2023/12/13 08:43:13;;;;;;;6.75;1.60;;;;;;;;;;5262967;28;20100;-82
2023/12/13 08:45:44;;;;;;;7.72;1.35;;;;;;;;;;5262187;28;20020;-85
2023/12/13 08:48:15;;;;;;;6.78;1.00;;;;;;;;;;5262905;28;20033;-83
2023/12/13 08:50:47;;;;;;;5.68;1.10;;;;;;;;;;5262689;28;20021;-84
2023/12/13 08:53:18;;;;;;;5.40;1.08;;;;;;;;;;5261687;28;20021;-81
2023/12/13 08:55:49;;;;;;;8.50;1.30;;;;;;;;;;5262926;28;20044;-81
2023/12/13 08:58:20;;;;;;;6.05;0.90;;;;;;;;;;5261735;28;20024;-80
2023/12/13 09:00:51;;;;;;;7.72;1.13;;;;;;;;;;5263795;28;20048;-81
2023/12/13 09:03:23;;;;;;;9.35;1.40;;;;;;;;;;5263364;28;20028;-80
2023/12/13 09:05:54;;;;;;;7.57;0.95;;;;;;;;;;5262069;28;20496;-80
2023/12/13 09:08:25;;;;;;;3.90;1.00;;;;;;;;;;5262197;28;20028;-80
2023/12/13 09:10:57;;;;;;;6.22;1.25;;;;;;;;;;5262486;28;20028;-81
2023/12/13 09:13:28;;;;;;;4.57;0.93;;;;;;;;;;5262076;28;20047;-81
2023/12/13 09:15:59;;;;;;;7.85;1.10;;;;;;;;;;5263220;28;20104;-80
2023/12/13 09:18:31;;;;;;;7.15;1.65;;;;;;;;;;5263052;28;20396;-81
2023/12/13 09:21:03;;;;;;;5.55;1.20;;;;;;;;;;5261883;28;20106;-82
2023/12/13 09:23:36;;;;;;;10.43;1.30;;;;;;;;;;5266021;28;20035;-86
2023/12/13 09:26:07;;;;;;;8.90;1.75;;;;;;;;;;5265101;28;20416;-80
2023/12/13 09:28:38;;;;;;;8.10;1.40;;;;;;;;;;5263707;28;20017;-81
2023/12/13 09:31:10;;;;;;;4.10;1.05;;;;;;;;;;5263016;28;20059;-82
2023/12/13 09:33:42;;;;;;;5.93;0.95;;;;;;;;;;5264204;28;20037;-82
2023/12/13 09:36:13;;;;;;;8.38;1.15;;;;;;;;;;5265345;28;20029;-83
2023/12/13 09:38:44;;;;;;;6.72;1.48;;;;;;;;;;5264092;28;20025;-82
2023/12/13 09:41:20;;;;;;;5.97;1.30;;;;;;;;;;5261412;28;20025;-82
2023/12/13 09:43:53;;;;;;;8.52;1.63;;;;;;;;;;5261907;28;20021;-80
2023/12/13 09:46:25;;;;;;;5.40;1.20;;;;;;;;;;5261737;28;20025;-80
2023/12/13 09:48:56;;;;;;;5.65;0.88;;;;;;;;;;5261567;28;20075;-80
2023/12/13 09:51:27;;;;;;;5.20;1.15;;;;;;;;;;5261446;28;20062;-81
2023/12/13 09:54:01;;;;;;;4.80;1.00;;;;;;;;;;5261189;28;20135;-81
2023/12/13 09:56:32;;;;;;;6.10;1.20;;;;;;;;;;5261028;28;20110;-81
2023/12/13 09:59:03;;;;;;;4.05;0.95;;;;;;;;;;5261177;28;20056;-81
2023/12/13 10:01:35;;;;;;;5.60;1.33;;;;;;;;;;5260508;28;20428;-81
2023/12/13 10:04:06;;;;;;;4.68;1.30;;;;;;;;;;5261190;28;20438;-81
2023/12/13 10:06:37;;;;;;;6.28;1.52;;;;;;;;;;5261645;28;20040;-81
2023/12/13 10:09:09;;;;;;;4.93;1.33;;;;;;;;;;5260597;28;20032;-81
2023/12/13 10:11:40;;;;;;;2.80;0.88;;;;;;;;;;5261213;28;20462;-81
2023/12/13 10:14:11;;;;;;;5.32;1.55;;;;;;;;;;5261779;28;20029;-81
2023/12/13 10:16:42;;;;;;;6.72;1.35;;;;;;;;;;5260253;28;20025;-81
2023/12/13 10:19:14;;;;;;;4.55;1.70;;;;;;;;;;5261371;28;20419;-81
2023/12/13 10:21:48;;;;;;;6.72;1.10;;;;;;;;;;5261278;28;20104;-81
2023/12/13 10:24:24;;;;;;;4.28;1.30;;;;;;;;;;5260161;28;20500;-81
2023/12/13 10:26:55;;;;;;;7.40;1.27;;;;;;;;;;5260398;28;20523;-81
2023/12/13 10:29:26;;;;;;;5.25;1.20;;;;;;;;;;5260914;28;20060;-81
2023/12/13 10:31:57;;;;;;;6.10;1.20;;;;;;;;;;5260349;28;20017;-82
2023/12/13 10:34:29;;;;;;;5.68;1.30;;;;;;;;;;5261131;28;20041;-81
2023/12/13 10:37:00;;;;;;;8.07;1.20;;;;;;;;;;5260013;28;20033;-81
2023/12/13 10:39:32;;;;;;;5.60;1.40;;;;;;;;;;5260776;28;20506;-81
2023/12/13 10:42:04;;;;;;;5.78;1.42;;;;;;;;;;5261221;28;20096;-81
2023/12/13 10:44:36;;;;;;;5.60;1.30;;;;;;;;;;5260264;28;20098;-81
2023/12/13 10:47:08;;;;;;;4.32;1.10;;;;;;;;;;5260873;28;20021;-81
2023/12/13 10:49:41;;;;;;;6.68;1.50;;;;;;;;;;5260816;28;20009;-81
2023/12/13 10:52:13;;;;;;;10.38;2.33;;;;;;;;;;5260259;28;20025;-80
2023/12/13 10:54:45;;;;;;;5.60;1.55;;;;;;;;;;5262932;28;20039;-82
2023/12/13 10:57:17;;;;;;;6.85;1.33;;;;;;;;;;5261278;28;20033;-81
2023/12/13 10:59:49;;;;;;;6.53;1.42;;;;;;;;;;5260542;28;20036;-80
2023/12/13 11:02:21;;;;;;;5.85;0.80;;;;;;;;;;5260838;28;20107;-82
2023/12/13 11:04:52;;;;;;;5.90;1.00;;;;;;;;;;5260053;28;20500;-84
2023/12/13 11:07:23;;;;;;;3.92;1.10;;;;;;;;;;5260195;28;20028;-84
2023/12/13 11:09:54;;;;;;;5.18;0.70;;;;;;;;;;5257111;28;20045;-85
2023/12/13 11:12:26;;;;;;;6.68;1.20;;;;;;;;;;5251451;28;20103;-83
2023/12/13 11:14:59;;;;;;;5.25;1.00;;;;;;;;;;5260229;28;20138;-83
2023/12/13 11:17:36;;;;;;;6.43;1.00;;;;;;;;;;5260490;28;20024;-83
2023/12/13 11:20:09;;;;;;;7.43;1.10;;;;;;;;;;5259476;28;20099;-85
2023/12/13 11:22:42;;;;;;;6.45;1.20;;;;;;;;;;5258201;28;20060;-83
2023/12/13 11:25:13;;;;;;;6.05;1.13;;;;;;;;;;5260219;28;20128;-85
2023/12/13 11:27:51;;;;;;;6.10;1.00;;;;;;;;;;5259711;28;20453;-85
2023/12/13 11:30:22;;;;;;;7.15;1.25;;;;;;;;;;5260325;28;20514;-82
2023/12/13 11:32:53;;;;;;;6.78;1.40;;;;;;;;;;5261505;28;20025;-85
2023/12/13 11:35:25;;;;;;;5.18;0.80;;;;;;;;;;5260435;28;20048;-85
2023/12/13 11:37:56;;;;;;;6.97;1.33;;;;;;;;;;5260906;28;20096;-83
2023/12/13 11:40:27;;;;;;;4.53;0.90;;;;;;;;;;5263092;28;20033;-87
2023/12/13 11:42:59;;;;;;;5.45;1.10;;;;;;;;;;5264229;28;20388;-84
2023/12/13 11:45:30;;;;;;;6.05;1.20;;;;;;;;;;5264119;28;20021;-86
2023/12/13 11:48:02;;;;;;;6.55;1.15;;;;;;;;;;5263245;28;20367;-85
2023/12/13 11:50:33;;;;;;;7.93;1.05;;;;;;;;;;5263986;28;20075;-87
2023/12/13 11:53:06;;;;;;;7.32;1.05;;;;;;;;;;5264034;28;20082;-85
2023/12/13 11:55:37;;;;;;;7.15;0.85;;;;;;;;;;5263337;28;20413;-87
2023/12/13 11:58:09;;;;;;;4.47;0.85;;;;;;;;;;5263827;28;20049;-85
2023/12/13 12:00:41;;;;;;;5.78;0.70;;;;;;;;;;5263734;28;20032;-85
2023/12/13 12:03:12;;;;;;;7.53;1.20;;;;;;;;;;5262957;28;20025;-84
2023/12/13 12:05:43;;;;;;;12.48;1.10;;;;;;;;;;5264002;28;20100;-87
2023/12/13 12:08:15;;;;;;;4.68;1.00;;;;;;;;;;5263060;28;20036;-86
2023/12/13 12:10:46;;;;;;;6.13;1.20;;;;;;;;;;5263613;28;20124;-85
2023/12/13 12:13:18;;;;;;;6.40;0.95;;;;;;;;;;5263464;28;20036;-85
2023/12/13 12:15:49;;;;;;;4.35;0.82;;;;;;;;;;5263019;28;20017;-85
2023/12/13 12:18:20;;;;;;;6.55;1.40;;;;;;;;;;5263403;28;20464;-83
2023/12/13 12:20:51;;;;;;;5.43;1.38;;;;;;;;;;5263756;28;20025;-84
2023/12/13 12:23:22;;;;;;;5.25;0.98;;;;;;;;;;5262431;28;20025;-85
2023/12/13 12:25:54;;;;;;;4.63;0.90;;;;;;;;;;5263682;28;20060;-81
2023/12/13 12:28:27;;;;;;;6.40;0.98;;;;;;;;;;5263000;28;20028;-83
2023/12/13 12:30:58;;;;;;;3.83;0.88;;;;;;;;;;5262497;28;20024;-81
2023/12/13 12:33:29;;;;;;;5.28;1.10;;;;;;;;;;5262954;28;20032;-83
2023/12/13 12:36:01;;;;;;;5.40;1.00;;;;;;;;;;5263106;28;20487;-82
2023/12/13 12:38:32;;;;;;;9.82;1.50;;;;;;;;;;5257129;28;20033;-84
2023/12/13 12:41:03;;;;;;;5.82;1.50;;;;;;;;;;5255932;28;20021;-81
2023/12/13 12:43:37;;;;;;;7.30;1.70;;;;;;;;;;5254078;28;20444;-82
2023/12/13 12:46:08;;;;;;;4.95;1.10;;;;;;;;;;5261261;28;20357;-82
2023/12/13 12:48:39;;;;;;;5.18;1.20;;;;;;;;;;5241481;28;20056;-82
2023/12/13 12:51:11;;;;;;;3.50;1.10;;;;;;;;;;5240485;28;20449;-82
2023/12/13 12:53:42;;;;;;;7.03;1.60;;;;;;;;;;5241414;28;20429;-82
2023/12/13 12:56:13;;;;;;;7.65;1.17;;;;;;;;;;5241755;28;20018;-82
2023/12/13 12:58:44;;;;;;;3.20;1.27;;;;;;;;;;5240704;28;20017;-82
2023/12/13 13:01:15;;;;;;;5.06;1.42;;;;;;;;;;5247185;28;20056;-82
2023/12/13 13:03:47;;;;;;;4.55;1.42;;;;;;;;;;5264065;28;20028;-82
2023/12/13 13:06:18;;;;;;;7.13;1.52;;;;;;;;;;5259693;28;20066;-82
2023/12/13 13:08:49;;;;;;;5.57;1.42;;;;;;;;;;5261965;28;20078;-82
2023/12/13 13:11:20;;;;;;;3.58;1.23;;;;;;;;;;5257657;28;20013;-84
2023/12/13 13:13:51;;;;;;;5.07;1.15;;;;;;;;;;5241469;28;20034;-82
2023/12/13 13:16:23;;;;;;;6.10;1.50;;;;;;;;;;5244777;28;20017;-82
2023/12/13 13:18:54;;;;;;;5.68;1.20;;;;;;;;;;5242251;28;20151;-82
2023/12/13 13:21:26;;;;;;;4.72;1.10;;;;;;;;;;5248894;28;20107;-82
2023/12/13 13:23:57;;;;;;;3.08;1.15;;;;;;;;;;5261718;28;20071;-82
2023/12/13 13:26:28;;;;;;;3.88;1.20;;;;;;;;;;5261178;28;20092;-82
2023/12/13 13:28:59;;;;;;;4.88;1.00;;;;;;;;;;5260696;28;20048;-81
2023/12/13 13:31:31;;;;;;;4.03;1.63;;;;;;;;;;5241080;28;20079;-81
2023/12/13 13:34:03;;;;;;;5.28;1.85;;;;;;;;;;5240255;28;20052;-82
2023/12/13 13:36:34;;;;;;;5.90;1.50;;;;;;;;;;5241120;28;20024;-82
2023/12/13 13:39:05;;;;;;;6.20;1.45;;;;;;;;;;5245141;28;20460;-82
2023/12/13 13:41:37;;;;;;;3.03;0.88;;;;;;;;;;5240301;28;20427;-82
2023/12/13 13:44:08;;;;;;;4.43;1.13;;;;;;;;;;5240926;28;20040;-82
2023/12/13 13:46:40;;;;;;;4.22;1.30;;;;;;;;;;5239759;28;20025;-82
2023/12/13 13:49:11;;;;;;;4.93;1.10;;;;;;;;;;5240695;28;20020;-82
2023/12/13 13:51:42;;;;;;;5.18;1.10;;;;;;;;;;5240595;28;20025;-82
2023/12/13 13:54:15;;;;;;;3.40;1.33;;;;;;;;;;5251884;28;20033;-82
2023/12/13 13:56:46;;;;;;;4.15;1.10;;;;;;;;;;5240085;28;20018;-82
2023/12/13 13:59:17;;;;;;;4.10;1.20;;;;;;;;;;5244847;28;20071;-82
2023/12/13 14:01:49;;;;;;;4.36;1.20;;;;;;;;;;5248514;28;20051;-81
2023/12/13 14:04:21;;;;;;;3.03;1.02;;;;;;;;;;5257229;28;20021;-81
2023/12/13 14:06:52;;;;;;;4.90;1.73;;;;;;;;;;5242008;28;20014;-81
2023/12/13 14:09:24;;;;;;;3.85;1.40;;;;;;;;;;5260032;28;20013;-82
2023/12/13 14:11:55;;;;;;;5.60;1.63;;;;;;;;;;5253201;28;20032;-82
2023/12/13 14:14:26;;;;;;;4.90;1.46;;;;;;;;;;5239873;28;20034;-82
2023/12/13 14:16:57;;;;;;;6.47;1.63;;;;;;;;;;5240505;28;20018;-81
2023/12/13 14:19:28;;;;;;;4.05;1.27;;;;;;;;;;5240231;28;20020;-82
2023/12/13 14:22:01;;;;;;;6.18;1.40;;;;;;;;;;5239418;28;20029;-78
2023/12/13 14:24:32;;;;;;;6.35;2.20;;;;;;;;;;5240965;28;20556;-81
2023/12/13 14:27:04;;;;;;;5.38;1.52;;;;;;;;;;5241434;28;20101;-85
2023/12/13 14:29:35;;;;;;;5.50;1.98;;;;;;;;;;5247423;28;20043;-84
2023/12/13 14:32:07;;;;;;;5.72;2.08;;;;;;;;;;5262246;28;20020;-86
2023/12/13 14:34:38;;;;;;;7.03;1.85;;;;;;;;;;5260766;28;20017;-82
2023/12/13 14:37:10;;;;;;;4.43;1.90;;;;;;;;;;5245962;28;20112;-83
2023/12/13 14:39:42;;;;;;;4.53;1.55;;;;;;;;;;5242373;28;20029;-80
2023/12/13 14:42:13;;;;;;;4.63;2.40;;;;;;;;;;5259732;28;20013;-82
2023/12/13 14:44:44;;;;;;;3.70;1.77;;;;;;;;;;5260137;28;20040;-83
2023/12/13 14:47:16;;;;;;;4.10;1.75;;;;;;;;;;5260675;28;20025;-83
2023/12/13 14:49:47;;;;;;;4.45;2.10;;;;;;;;;;5259962;28;20483;-82
2023/12/13 14:52:18;;;;;;;4.03;2.00;;;;;;;;;;5260941;28;20059;-82
2023/12/13 14:54:49;;;;;;;8.18;1.70;;;;;;;;;;5260892;28;20020;-82
2023/12/13 14:57:20;;;;;;;5.00;2.33;;;;;;;;;;5259776;28;20021;-82
2023/12/13 14:59:52;;;;;;;5.93;2.65;;;;;;;;;;5260837;28;20024;-83
2023/12/13 15:02:24;;;;;;;4.47;2.40;;;;;;;;;;5261477;28;20023;-84
2023/12/13 15:04:55;;;;;;;6.10;2.30;;;;;;;;;;5261417;28;20423;-84
2023/12/13 15:07:27;;;;;;;5.25;2.58;;;;;;;;;;5261729;28;20039;-84